createdAt,value
2022-12-12T00:00:53.206Z,-0.30
2022-12-12T00:01:57.145Z,-0.30
2022-12-12T00:03:01.144Z,-0.29
2022-12-12T00:04:06.034Z,-0.26
2022-12-12T00:05:15.645Z,-0.19
2022-12-12T00:06:20.419Z,-0.22
2022-12-12T00:07:24.130Z,-0.18
2022-12-12T00:08:27.994Z,-0.22
2022-12-12T00:09:31.622Z,-0.22
2022-12-12T00:10:36.534Z,-0.17
2022-12-12T00:11:41.202Z,-0.20
2022-12-12T00:12:44.786Z,-0.19
2022-12-12T00:13:49.357Z,-0.15
2022-12-12T00:14:52.994Z,-0.13
2022-12-12T00:15:56.657Z,-0.11
2022-12-12T00:17:00.644Z,-0.15
2022-12-12T00:18:04.581Z,-0.15
2022-12-12T00:19:08.230Z,-0.20
2022-12-12T00:20:12.035Z,-0.15
2022-12-12T00:21:23.487Z,-0.14
2022-12-12T00:22:27.231Z,-0.14
2022-12-12T00:23:31.246Z,-0.11
2022-12-12T00:24:35.076Z,-0.12
2022-12-12T00:25:38.657Z,-0.26
2022-12-12T00:26:42.463Z,-0.31
2022-12-12T00:27:47.199Z,-0.32
2022-12-12T00:28:51.343Z,-0.26
2022-12-12T00:29:56.007Z,-0.31
2022-12-12T00:31:00.007Z,-0.22
2022-12-12T00:32:04.112Z,-0.21
2022-12-12T00:33:07.825Z,-0.29
2022-12-12T00:34:11.523Z,-0.36
2022-12-12T00:35:15.490Z,-0.39
2022-12-12T00:36:24.827Z,-0.36
2022-12-12T00:37:28.513Z,-0.29
2022-12-12T00:38:32.078Z,-0.21
2022-12-12T00:39:36.009Z,-0.24
2022-12-12T00:40:39.702Z,-0.23
2022-12-12T00:41:43.962Z,-0.20
2022-12-12T00:42:47.423Z,-0.19
2022-12-12T00:43:51.593Z,-0.18
2022-12-12T00:44:55.160Z,-0.20
2022-12-12T00:46:00.776Z,-0.32
2022-12-12T00:47:04.444Z,-0.29
2022-12-12T00:48:08.371Z,-0.26
2022-12-12T00:49:13.418Z,-0.28
2022-12-12T00:50:17.362Z,-0.29
2022-12-12T00:51:24.297Z,-0.25
2022-12-12T00:52:28.399Z,-0.33
2022-12-12T00:53:32.211Z,-0.31
2022-12-12T00:54:36.113Z,-0.26
2022-12-12T00:55:40.285Z,-0.34
2022-12-12T00:56:43.928Z,-0.32
2022-12-12T00:57:47.671Z,-0.33
2022-12-12T00:58:52.640Z,-0.42
2022-12-12T00:59:56.222Z,-0.43
2022-12-12T01:01:06.694Z,-0.41
2022-12-12T01:02:10.809Z,-0.39
2022-12-12T01:03:14.604Z,-0.35
2022-12-12T01:04:18.327Z,-0.36
2022-12-12T01:05:22.360Z,-0.34
2022-12-12T01:06:27.901Z,-0.40
2022-12-12T01:07:32.123Z,-0.37
2022-12-12T01:08:36.001Z,-0.42
2022-12-12T01:09:39.679Z,-0.33
2022-12-12T01:10:43.379Z,-0.30
2022-12-12T01:11:47.458Z,-0.29
2022-12-12T01:12:51.317Z,-0.34
2022-12-12T01:13:56.340Z,-0.36
2022-12-12T01:15:00.098Z,-0.41
2022-12-12T01:16:06.088Z,-0.43
2022-12-12T01:17:09.834Z,-0.42
2022-12-12T01:18:14.461Z,-0.34
2022-12-12T01:19:18.484Z,-0.31
2022-12-12T01:20:27.887Z,-0.32
2022-12-12T01:21:32.439Z,-0.30
2022-12-12T01:22:37.439Z,-0.31
2022-12-12T01:23:42.317Z,-0.30
2022-12-12T01:24:46.004Z,-0.28
2022-12-12T01:25:49.974Z,-0.34
2022-12-12T01:26:53.677Z,-0.36
2022-12-12T01:27:57.238Z,-0.27
2022-12-12T01:29:01.100Z,-0.32
2022-12-12T01:30:06.784Z,-0.32
2022-12-12T01:31:11.317Z,-0.41
2022-12-12T01:32:15.097Z,-0.41
2022-12-12T01:33:19.963Z,-0.34
2022-12-12T01:34:24.007Z,-0.33
2022-12-12T01:35:28.379Z,-0.36
2022-12-12T01:36:32.173Z,-0.36
2022-12-12T01:37:37.999Z,-0.38
2022-12-12T01:38:41.589Z,-0.39
2022-12-12T01:39:45.515Z,-0.40
2022-12-12T01:40:49.000Z,-0.43
2022-12-12T01:41:52.627Z,-0.42
2022-12-12T01:42:56.670Z,-0.45
2022-12-12T01:44:27.486Z,-0.41
2022-12-12T01:45:58.903Z,-0.41
2022-12-12T01:47:02.543Z,-0.49
2022-12-12T01:48:06.337Z,-0.45
2022-12-12T01:49:21.345Z,-0.48
2022-12-12T01:50:24.958Z,-0.47
2022-12-12T01:51:30.425Z,-0.40
2022-12-12T01:52:46.822Z,-0.37
2022-12-12T01:53:58.405Z,-0.42
2022-12-12T01:55:06.576Z,-0.47
2022-12-12T01:56:17.388Z,-0.49
2022-12-12T01:57:33.539Z,-0.48
2022-12-12T01:58:37.306Z,-0.50
2022-12-12T01:59:42.468Z,-0.42
2022-12-12T02:00:46.671Z,-0.40
2022-12-12T02:01:52.427Z,-0.44
2022-12-12T02:02:57.229Z,-0.50
2022-12-12T02:04:03.072Z,-0.52
2022-12-12T02:05:26.916Z,-0.49
2022-12-12T02:06:31.285Z,-0.49
2022-12-12T02:07:35.408Z,-0.45
2022-12-12T02:08:41.210Z,-0.36
2022-12-12T02:09:46.566Z,-0.44
2022-12-12T02:10:51.552Z,-0.43
2022-12-12T02:11:58.126Z,-0.45
2022-12-12T02:13:12.148Z,-0.50
2022-12-12T02:14:38.665Z,-0.56
2022-12-12T02:16:21.078Z,-0.58
2022-12-12T02:17:39.461Z,-0.63
2022-12-12T02:19:23.080Z,-0.58
2022-12-12T02:21:16.132Z,-0.58
2022-12-12T02:22:43.754Z,-0.63
2022-12-12T02:24:41.624Z,-0.64
2022-12-12T02:26:03.840Z,-0.61
2022-12-12T02:27:18.832Z,-0.61
2022-12-12T02:28:31.433Z,-0.66
2022-12-12T02:30:10.772Z,-0.64
2022-12-12T02:31:34.928Z,-0.61
2022-12-12T02:33:23.870Z,-0.56
2022-12-12T02:34:50.810Z,-0.65
2022-12-12T02:36:02.330Z,-0.63
2022-12-12T02:37:29.760Z,-0.56
2022-12-12T02:38:49.072Z,-0.58
2022-12-12T02:40:24.648Z,-0.60
2022-12-12T02:41:58.328Z,-0.69
2022-12-12T02:43:34.031Z,-0.65
2022-12-12T02:44:51.044Z,-0.68
2022-12-12T02:46:10.082Z,-0.70
2022-12-12T02:47:23.443Z,-0.61
2022-12-12T02:48:40.435Z,-0.57
2022-12-12T02:49:58.794Z,-0.61
2022-12-12T02:51:08.275Z,-0.63
2022-12-12T02:52:12.649Z,-0.59
2022-12-12T02:53:24.728Z,-0.60
2022-12-12T02:54:28.865Z,-0.57
2022-12-12T02:55:36.437Z,-0.57
2022-12-12T02:56:51.025Z,-0.58
2022-12-12T02:57:55.523Z,-0.59
2022-12-12T02:58:59.358Z,-0.53
2022-12-12T03:00:09.960Z,-0.55
2022-12-12T03:01:58.606Z,-0.59
2022-12-12T03:04:14.766Z,-0.62
2022-12-12T03:05:52.138Z,-0.61
2022-12-12T03:07:33.181Z,-0.62
2022-12-12T03:09:10.149Z,-0.69
2022-12-12T03:10:57.704Z,-0.66
2022-12-12T03:12:52.446Z,-0.71
2022-12-12T03:14:25.038Z,-0.73
2022-12-12T03:15:54.742Z,-0.72
2022-12-12T03:17:15.881Z,-0.75
2022-12-12T03:18:38.529Z,-0.78
2022-12-12T03:19:55.194Z,-0.76
2022-12-12T03:21:16.109Z,-0.70
2022-12-12T03:22:46.243Z,-0.79
2022-12-12T03:24:00.216Z,-0.75
2022-12-12T03:25:19.066Z,-0.71
2022-12-12T03:26:44.204Z,-0.75
2022-12-12T03:28:13.756Z,-0.70
2022-12-12T03:29:46.885Z,-0.73
2022-12-12T03:30:57.908Z,-0.72
2022-12-12T03:32:13.075Z,-0.75
2022-12-12T03:33:48.122Z,-0.70
2022-12-12T03:35:03.541Z,-0.74
2022-12-12T03:36:20.509Z,-0.77
2022-12-12T03:37:34.258Z,-0.77
2022-12-12T03:38:47.407Z,-0.77
2022-12-12T03:39:59.620Z,-0.82
2022-12-12T03:41:09.363Z,-0.81
2022-12-12T03:42:27.093Z,-0.74
2022-12-12T03:43:37.923Z,-0.71
2022-12-12T03:45:13.557Z,-0.75
2022-12-12T03:46:41.212Z,-0.74
2022-12-12T03:48:01.115Z,-0.71
2022-12-12T03:49:17.809Z,-0.71
2022-12-12T03:50:27.430Z,-0.75
2022-12-12T03:51:36.941Z,-0.72
2022-12-12T03:53:11.327Z,-0.67
2022-12-12T03:54:36.922Z,-0.70
2022-12-12T03:55:53.262Z,-0.77
2022-12-12T03:57:07.715Z,-0.81
2022-12-12T03:58:28.011Z,-0.77
2022-12-12T03:59:55.604Z,-0.84
2022-12-12T04:01:04.821Z,-0.80
2022-12-12T04:02:31.373Z,-0.75
2022-12-12T04:04:07.777Z,-0.81
2022-12-12T04:05:36.033Z,-0.79
2022-12-12T04:06:55.541Z,-0.88
2022-12-12T04:08:15.727Z,-0.91
2022-12-12T04:09:39.989Z,-0.94
2022-12-12T04:11:12.110Z,-0.86
2022-12-12T04:12:40.377Z,-0.87
2022-12-12T04:14:06.185Z,-0.77
2022-12-12T04:15:58.451Z,-0.85
2022-12-12T04:17:06.859Z,-0.88
2022-12-12T04:18:19.181Z,-0.83
2022-12-12T04:20:10.365Z,-0.78
2022-12-12T04:21:56.807Z,-0.80
2022-12-12T04:23:30.879Z,-0.70
2022-12-12T04:25:06.121Z,-0.71
2022-12-12T04:26:42.433Z,-0.75
2022-12-12T04:27:54.719Z,-0.69
2022-12-12T04:29:28.642Z,-0.70
2022-12-12T04:30:35.812Z,-0.70
2022-12-12T04:31:57.222Z,-0.76
2022-12-12T04:33:14.659Z,-0.77
2022-12-12T04:34:31.927Z,-0.74
2022-12-12T04:35:41.465Z,-0.69
2022-12-12T04:36:48.184Z,-0.76
2022-12-12T04:38:27.502Z,-0.70
2022-12-12T04:39:37.177Z,-0.63
2022-12-12T04:40:50.614Z,-0.66
2022-12-12T04:41:56.391Z,-0.72
2022-12-12T04:43:17.619Z,-0.75
2022-12-12T04:44:24.586Z,-0.79
2022-12-12T04:45:41.030Z,-0.71
2022-12-12T04:46:51.400Z,-0.69
2022-12-12T04:47:58.753Z,-0.69
2022-12-12T04:49:22.358Z,-0.70
2022-12-12T04:50:31.806Z,-0.61
2022-12-12T04:51:46.795Z,-0.62
2022-12-12T04:52:53.859Z,-0.64
2022-12-12T04:54:10.997Z,-0.57
2022-12-12T04:55:36.988Z,-0.54
2022-12-12T04:56:53.026Z,-0.54
2022-12-12T04:57:57.286Z,-0.57
2022-12-12T04:59:02.940Z,-0.60
2022-12-12T05:00:12.681Z,-0.63
2022-12-12T05:01:52.856Z,-0.53
2022-12-12T05:03:20.605Z,-0.54
2022-12-12T05:04:51.421Z,-0.50
2022-12-12T05:06:08.041Z,-0.46
2022-12-12T05:07:23.253Z,-0.61
2022-12-12T05:08:39.940Z,-0.57
2022-12-12T05:09:44.453Z,-0.52
2022-12-12T05:10:54.901Z,-0.56
2022-12-12T05:11:58.859Z,-0.59
2022-12-12T05:13:03.143Z,-0.58
2022-12-12T05:14:10.186Z,-0.61
2022-12-12T05:15:16.801Z,-0.64
2022-12-12T05:16:48.256Z,-0.57
2022-12-12T05:18:08.373Z,-0.59
2022-12-12T05:19:11.964Z,-0.55
2022-12-12T05:20:17.089Z,-0.55
2022-12-12T05:21:20.986Z,-0.53
2022-12-12T05:22:25.187Z,-0.50
2022-12-12T05:23:34.465Z,-0.51
2022-12-12T05:24:38.565Z,-0.55
2022-12-12T05:25:42.420Z,-0.48
2022-12-12T05:26:46.193Z,-0.46
2022-12-12T05:27:50.171Z,-0.47
2022-12-12T05:28:55.313Z,-0.43
2022-12-12T05:29:59.184Z,-0.37
2022-12-12T05:31:03.325Z,-0.41
2022-12-12T05:32:07.240Z,-0.51
2022-12-12T05:33:11.266Z,-0.52
2022-12-12T05:34:15.021Z,-0.50
2022-12-12T05:35:19.389Z,-0.53
2022-12-12T05:36:23.246Z,-0.53
2022-12-12T05:37:27.248Z,-0.58
2022-12-12T05:38:31.120Z,-0.52
2022-12-12T05:39:34.996Z,-0.46
2022-12-12T05:40:38.948Z,-0.48
2022-12-12T05:41:42.782Z,-0.45
2022-12-12T05:42:46.646Z,-0.43
2022-12-12T05:43:50.707Z,-0.41
2022-12-12T05:44:55.080Z,-0.50
2022-12-12T05:45:59.276Z,-0.57
2022-12-12T05:47:03.137Z,-0.50
2022-12-12T05:48:07.130Z,-0.50
2022-12-12T05:49:10.819Z,-0.50
2022-12-12T05:50:15.108Z,-0.49
2022-12-12T05:51:19.558Z,-0.52
2022-12-12T05:52:23.304Z,-0.45
2022-12-12T05:53:26.880Z,-0.45
2022-12-12T05:54:30.902Z,-0.39
2022-12-12T05:55:35.654Z,-0.46
2022-12-12T05:56:39.493Z,-0.42
2022-12-12T05:57:43.272Z,-0.43
2022-12-12T05:58:46.804Z,-0.45
2022-12-12T05:59:51.200Z,-0.37
2022-12-12T06:00:58.587Z,-0.33
2022-12-12T06:02:07.029Z,-0.30
2022-12-12T06:03:10.734Z,-0.24
2022-12-12T06:04:14.959Z,-0.28
2022-12-12T06:05:19.004Z,-0.26
2022-12-12T06:06:23.264Z,-0.26
2022-12-12T06:07:27.176Z,-0.26
2022-12-12T06:08:31.002Z,-0.21
2022-12-12T06:09:35.268Z,-0.33
2022-12-12T06:10:39.185Z,-0.36
2022-12-12T06:11:43.439Z,-0.33
2022-12-12T06:12:47.235Z,-0.36
2022-12-12T06:13:50.828Z,-0.34
2022-12-12T06:14:54.321Z,-0.34
2022-12-12T06:15:58.119Z,-0.29
2022-12-12T06:17:01.977Z,-0.33
2022-12-12T06:18:06.527Z,-0.37
2022-12-12T06:19:10.731Z,-0.37
2022-12-12T06:20:14.375Z,-0.32
2022-12-12T06:21:18.465Z,-0.38
2022-12-12T06:22:22.300Z,-0.35
2022-12-12T06:23:26.439Z,-0.43
2022-12-12T06:24:30.060Z,-0.43
2022-12-12T06:25:34.118Z,-0.46
2022-12-12T06:26:37.752Z,-0.42
2022-12-12T06:27:41.822Z,-0.36
2022-12-12T06:28:46.970Z,-0.40
2022-12-12T06:29:50.638Z,-0.35
2022-12-12T06:30:54.470Z,-0.34
2022-12-12T06:31:58.288Z,-0.30
2022-12-12T06:33:02.785Z,-0.30
2022-12-12T06:34:06.805Z,-0.30
2022-12-12T06:35:12.523Z,-0.34
2022-12-12T06:36:24.730Z,-0.36
2022-12-12T06:37:28.776Z,-0.42
2022-12-12T06:38:33.532Z,-0.47
2022-12-12T06:39:38.375Z,-0.39
2022-12-12T06:40:42.603Z,-0.29
2022-12-12T06:41:46.475Z,-0.40
2022-12-12T06:42:50.480Z,-0.45
2022-12-12T06:43:55.727Z,-0.41
2022-12-12T06:44:59.389Z,-0.42
2022-12-12T06:46:06.460Z,-0.41
2022-12-12T06:47:10.599Z,-0.37
2022-12-12T06:48:14.704Z,-0.31
2022-12-12T06:49:18.714Z,-0.29
2022-12-12T06:50:23.952Z,-0.26
2022-12-12T06:51:36.507Z,-0.17
2022-12-12T06:52:40.403Z,-0.18
2022-12-12T06:53:44.910Z,-0.17
2022-12-12T06:54:49.131Z,-0.19
2022-12-12T06:55:52.965Z,-0.22
2022-12-12T06:56:57.049Z,-0.22
2022-12-12T06:58:01.104Z,-0.16
2022-12-12T06:59:05.136Z,-0.16
2022-12-12T07:00:09.858Z,-0.21
2022-12-12T07:01:16.360Z,-0.22
2022-12-12T07:02:26.028Z,-0.23
2022-12-12T07:03:33.753Z,-0.26
2022-12-12T07:04:37.750Z,-0.29
2022-12-12T07:05:41.457Z,-0.35
2022-12-12T07:06:45.875Z,-0.32
2022-12-12T07:07:49.752Z,-0.31
2022-12-12T07:08:53.714Z,-0.33
2022-12-12T07:09:57.776Z,-0.37
2022-12-12T07:11:26.104Z,-0.36
2022-12-12T07:12:29.944Z,-0.38
2022-12-12T07:13:34.307Z,-0.33
2022-12-12T07:14:40.321Z,-0.36
2022-12-12T07:15:50.420Z,-0.38
2022-12-12T07:16:54.733Z,-0.43
2022-12-12T07:17:58.609Z,-0.44
2022-12-12T07:19:02.801Z,-0.37
2022-12-12T07:20:10.694Z,-0.39
2022-12-12T07:21:18.738Z,-0.38
2022-12-12T07:22:23.293Z,-0.38
2022-12-12T07:23:27.621Z,-0.44
2022-12-12T07:24:31.483Z,-0.47
2022-12-12T07:25:38.822Z,-0.46
2022-12-12T07:26:42.860Z,-0.46
2022-12-12T07:27:47.162Z,-0.44
2022-12-12T07:28:52.222Z,-0.39
2022-12-12T07:29:55.716Z,-0.33
2022-12-12T07:31:01.529Z,-0.40
2022-12-12T07:32:05.733Z,-0.45
2022-12-12T07:33:11.677Z,-0.51
2022-12-12T07:34:15.368Z,-0.50
2022-12-12T07:35:19.305Z,-0.54
2022-12-12T07:36:24.932Z,-0.56
2022-12-12T07:37:30.138Z,-0.57
2022-12-12T07:38:36.935Z,-0.54
2022-12-12T07:39:40.935Z,-0.45
2022-12-12T07:40:44.815Z,-0.40
2022-12-12T07:41:48.786Z,-0.35
2022-12-12T07:42:52.869Z,-0.41
2022-12-12T07:43:56.532Z,-0.42
2022-12-12T07:45:00.230Z,-0.39
2022-12-12T07:46:08.287Z,-0.35
2022-12-12T07:47:11.875Z,-0.31
2022-12-12T07:48:15.803Z,-0.28
2022-12-12T07:49:19.667Z,-0.23
2022-12-12T07:50:23.674Z,-0.32
2022-12-12T07:51:27.314Z,-0.29
2022-12-12T07:52:30.865Z,-0.32
2022-12-12T07:53:34.522Z,-0.33
2022-12-12T07:54:38.419Z,-0.33
2022-12-12T07:55:41.983Z,-0.30
2022-12-12T07:56:45.832Z,-0.29
2022-12-12T07:57:50.485Z,-0.32
2022-12-12T07:58:55.601Z,-0.27
2022-12-12T07:59:59.520Z,-0.21
2022-12-12T08:01:15.415Z,-0.17
2022-12-12T08:02:19.107Z,-0.22
2022-12-12T08:03:23.034Z,-0.17
2022-12-12T08:04:27.506Z,-0.18
2022-12-12T08:05:31.615Z,-0.23
2022-12-12T08:06:35.205Z,-0.22
2022-12-12T08:07:38.822Z,-0.22
2022-12-12T08:08:47.826Z,-0.20
2022-12-12T08:09:51.588Z,-0.16
2022-12-12T08:10:55.768Z,-0.16
2022-12-12T08:12:00.307Z,-0.19
2022-12-12T08:13:04.281Z,-0.20
2022-12-12T08:14:12.884Z,-0.21
2022-12-12T08:15:18.452Z,-0.18
2022-12-12T08:16:30.290Z,-0.12
2022-12-12T08:17:34.136Z,-0.17
2022-12-12T08:18:37.828Z,-0.11
2022-12-12T08:19:41.599Z,-0.13
2022-12-12T08:20:45.839Z,-0.13
2022-12-12T08:21:49.739Z,-0.13
2022-12-12T08:22:53.958Z,-0.18
2022-12-12T08:24:00.748Z,-0.17
2022-12-12T08:25:05.084Z,-0.19
2022-12-12T08:26:12.491Z,-0.13
2022-12-12T08:27:17.625Z,-0.16
2022-12-12T08:28:25.208Z,-0.20
2022-12-12T08:29:29.600Z,-0.19
2022-12-12T08:30:33.280Z,-0.14
2022-12-12T08:31:39.921Z,-0.11
2022-12-12T08:32:44.073Z,-0.05
2022-12-12T08:33:50.835Z,-0.05
2022-12-12T08:34:59.512Z,-0.06
2022-12-12T08:36:15.603Z,-0.03
2022-12-12T08:37:19.930Z,-0.07
2022-12-12T08:38:24.825Z,-0.01
2022-12-12T08:39:28.701Z,-0.09
2022-12-12T08:40:32.489Z,-0.10
2022-12-12T08:41:40.613Z,-0.14
2022-12-12T08:42:45.378Z,-0.14
2022-12-12T08:43:50.509Z,-0.13
2022-12-12T08:46:23.177Z,-0.19
2022-12-12T08:47:39.523Z,-0.20
2022-12-12T08:48:45.597Z,-0.23
2022-12-12T08:49:49.548Z,-0.28
2022-12-12T08:50:54.817Z,-0.28
2022-12-12T08:51:58.917Z,-0.27
2022-12-12T08:53:03.017Z,-0.30
2022-12-12T09:06:19.408Z,-0.31
2022-12-12T09:07:23.575Z,-0.29
2022-12-12T09:08:32.129Z,-0.23
2022-12-12T09:09:37.424Z,-0.24
2022-12-12T09:10:42.702Z,-0.27
2022-12-12T09:11:47.231Z,-0.24
2022-12-12T09:12:51.200Z,-0.22
2022-12-12T09:13:54.804Z,-0.18
2022-12-12T09:14:58.524Z,-0.25
2022-12-12T09:16:02.749Z,-0.28
2022-12-12T09:17:12.593Z,-0.28
2022-12-12T09:18:16.371Z,-0.26
2022-12-12T09:19:19.984Z,-0.16
2022-12-12T09:20:24.116Z,-0.19
2022-12-12T09:21:27.943Z,-0.21
2022-12-12T09:22:32.706Z,-0.15
2022-12-12T09:23:36.873Z,-0.19
2022-12-12T09:24:40.518Z,-0.16
2022-12-12T09:25:44.869Z,-0.18
2022-12-12T09:26:48.818Z,-0.14
2022-12-12T09:27:52.568Z,-0.18
2022-12-12T09:28:56.155Z,-0.13
2022-12-12T09:30:00.260Z,-0.11
2022-12-12T09:31:16.909Z,-0.06
2022-12-12T09:32:24.623Z,-0.10
2022-12-12T09:33:28.838Z,-0.10
2022-12-12T09:34:34.358Z,-0.02
2022-12-12T09:35:38.554Z,-0.04
2022-12-12T09:36:42.291Z,-0.02
2022-12-12T09:37:46.387Z,-0.05
2022-12-12T09:38:50.604Z,0.02
2022-12-12T09:39:54.183Z,0.09
2022-12-12T09:41:09.896Z,0.07
2022-12-12T09:42:29.744Z,0.07
2022-12-12T09:43:41.345Z,-0.06
2022-12-12T09:44:46.073Z,0.01
2022-12-12T09:45:51.177Z,0.02
2022-12-12T09:47:09.750Z,0.05
2022-12-12T09:48:35.762Z,0.10
2022-12-12T09:49:55.837Z,0.12
2022-12-12T09:51:00.520Z,0.17
2022-12-12T09:52:04.904Z,0.17
2022-12-12T09:53:18.539Z,0.18
2022-12-12T09:54:26.995Z,0.20
2022-12-12T09:56:12.590Z,0.26
2022-12-12T09:57:41.721Z,0.23
2022-12-12T09:59:24.113Z,0.22
2022-12-12T10:00:35.440Z,0.27
2022-12-12T10:02:13.083Z,0.22
2022-12-12T10:03:46.295Z,0.32
2022-12-12T10:05:27.288Z,0.28
2022-12-12T10:06:49.201Z,0.22
2022-12-12T10:08:24.601Z,0.24
2022-12-12T10:10:13.935Z,0.35
2022-12-12T10:11:52.126Z,0.31
2022-12-12T10:13:00.141Z,0.31
2022-12-12T10:14:14.154Z,0.30
2022-12-12T10:15:39.574Z,0.24
2022-12-12T10:16:45.028Z,0.24
2022-12-12T10:17:50.326Z,0.24
2022-12-12T10:19:05.653Z,0.24
2022-12-12T10:20:28.866Z,0.27
2022-12-12T10:21:40.948Z,0.30
2022-12-12T10:23:00.368Z,0.32
2022-12-12T10:24:40.856Z,0.41
2022-12-12T10:25:54.685Z,0.43
2022-12-12T10:27:11.046Z,0.44
2022-12-12T10:28:19.690Z,0.37
2022-12-12T10:29:27.458Z,0.38
2022-12-12T10:30:37.178Z,0.42
2022-12-12T10:32:24.967Z,0.41
2022-12-12T10:34:13.960Z,0.41
2022-12-12T10:35:54.199Z,0.40
2022-12-12T10:37:54.520Z,0.38
2022-12-12T10:39:31.842Z,0.45
2022-12-12T10:41:12.299Z,0.45
2022-12-12T10:43:01.725Z,0.43
2022-12-12T10:44:47.007Z,0.38
2022-12-12T10:46:32.605Z,0.38
2022-12-12T10:47:36.540Z,0.38
2022-12-12T10:48:41.148Z,0.38
2022-12-12T10:49:45.121Z,0.42
2022-12-12T10:50:57.927Z,0.43
2022-12-12T10:52:15.464Z,0.48
2022-12-12T10:53:24.873Z,0.39
2022-12-12T10:54:37.456Z,0.38
2022-12-12T10:56:09.390Z,0.46
2022-12-12T10:57:26.161Z,0.47
2022-12-12T10:58:43.816Z,0.54
2022-12-12T10:59:57.846Z,0.56
2022-12-12T11:01:12.687Z,0.55
2022-12-12T11:02:40.020Z,0.57
2022-12-12T11:03:49.316Z,0.45
2022-12-12T11:05:24.528Z,0.37
2022-12-12T11:06:33.903Z,0.40
2022-12-12T11:07:45.380Z,0.38
2022-12-12T11:09:10.414Z,0.35
2022-12-12T11:10:32.164Z,0.36
2022-12-12T11:11:37.847Z,0.32
2022-12-12T11:12:41.749Z,0.32
2022-12-12T11:14:01.438Z,0.36
2022-12-12T11:15:17.657Z,0.39
2022-12-12T11:16:29.313Z,0.36
2022-12-12T11:17:35.290Z,0.36
2022-12-12T11:18:39.369Z,0.39
2022-12-12T11:19:46.658Z,0.44
2022-12-12T11:21:14.665Z,0.41
2022-12-12T11:22:19.427Z,0.46
2022-12-12T11:23:29.447Z,0.46
2022-12-12T11:24:35.020Z,0.42
2022-12-12T11:25:38.833Z,0.39
2022-12-12T11:26:49.505Z,0.31
2022-12-12T11:27:55.046Z,0.34
2022-12-12T11:29:03.534Z,0.41
2022-12-12T11:30:25.443Z,0.38
2022-12-12T11:31:38.791Z,0.44
2022-12-12T11:32:48.628Z,0.43
2022-12-12T11:34:07.520Z,0.46
2022-12-12T11:35:43.854Z,0.42
2022-12-12T11:36:51.451Z,0.42
2022-12-12T11:38:23.249Z,0.40
2022-12-12T11:39:41.813Z,0.35
2022-12-12T11:41:05.855Z,0.28
2022-12-12T11:42:16.148Z,0.26
2022-12-12T11:43:27.881Z,0.28
2022-12-12T11:44:44.245Z,0.23
2022-12-12T11:46:00.298Z,0.21
2022-12-12T11:47:24.127Z,0.21
2022-12-12T11:48:38.665Z,0.24
2022-12-12T11:49:54.588Z,0.28
2022-12-12T11:50:58.647Z,0.33
2022-12-12T11:52:20.577Z,0.34
2022-12-12T11:53:24.296Z,0.35
2022-12-12T11:54:31.613Z,0.26
2022-12-12T11:56:04.435Z,0.22
2022-12-12T11:57:35.180Z,0.22
2022-12-12T11:58:50.369Z,0.17
2022-12-12T12:00:19.711Z,0.21
2022-12-12T12:02:05.111Z,0.21
2022-12-12T12:03:33.761Z,0.23
2022-12-12T12:05:04.852Z,0.27
2022-12-12T12:06:44.946Z,0.21
2022-12-12T12:08:30.478Z,0.28
2022-12-12T12:10:03.674Z,0.26
2022-12-12T12:11:41.038Z,0.34
2022-12-12T12:13:35.242Z,0.19
2022-12-12T12:14:58.917Z,0.23
2022-12-12T12:16:41.746Z,0.16
2022-12-12T12:18:17.116Z,0.19
2022-12-12T12:20:13.044Z,0.09
2022-12-12T12:21:43.826Z,0.11
2022-12-12T12:22:59.536Z,0.18
2022-12-12T12:24:37.132Z,0.18
2022-12-12T12:25:55.951Z,0.21
2022-12-12T12:27:32.135Z,0.29
2022-12-12T12:29:21.558Z,0.37
2022-12-12T12:30:34.626Z,0.36
2022-12-12T12:31:59.865Z,0.33
2022-12-12T12:33:31.799Z,0.29
2022-12-12T12:35:18.173Z,0.26
2022-12-12T12:36:55.198Z,0.24
2022-12-12T12:38:34.115Z,0.20
2022-12-12T12:40:10.169Z,0.20
2022-12-12T12:41:41.742Z,0.22
2022-12-12T12:43:22.816Z,0.25
2022-12-12T12:45:23.915Z,0.21
2022-12-12T12:47:04.617Z,0.25
2022-12-12T12:48:59.674Z,0.28
2022-12-12T12:50:21.196Z,0.30
2022-12-12T12:51:43.133Z,0.36
2022-12-12T12:53:24.493Z,0.41
2022-12-12T12:54:38.179Z,0.43
2022-12-12T12:55:50.917Z,0.36
2022-12-12T12:57:20.436Z,0.41
2022-12-12T12:58:40.558Z,0.42
2022-12-12T13:00:00.857Z,0.36
2022-12-12T13:01:12.799Z,0.44
2022-12-12T13:02:41.334Z,0.44
2022-12-12T13:04:18.234Z,0.35
2022-12-12T13:05:26.964Z,0.37
2022-12-12T13:06:43.934Z,0.42
2022-12-12T13:08:26.082Z,0.39
2022-12-12T13:09:59.236Z,0.40
2022-12-12T13:11:39.780Z,0.44
2022-12-12T13:13:17.351Z,0.45
2022-12-12T13:14:45.039Z,0.45
2022-12-12T13:15:58.012Z,0.38
2022-12-12T13:17:07.568Z,0.39
2022-12-12T13:18:17.937Z,0.41
2022-12-12T13:19:47.913Z,0.39
2022-12-12T13:21:07.269Z,0.40
2022-12-12T13:22:49.161Z,0.33
2022-12-12T13:23:59.905Z,0.36
2022-12-12T13:25:48.476Z,0.38
2022-12-12T13:27:20.999Z,0.36
2022-12-12T13:28:36.598Z,0.34
2022-12-12T13:29:54.118Z,0.32
2022-12-12T13:31:31.437Z,0.30
2022-12-12T13:33:22.818Z,0.38
2022-12-12T13:34:31.587Z,0.36
2022-12-12T13:35:46.415Z,0.39
2022-12-12T13:36:53.727Z,0.42
2022-12-12T13:37:59.363Z,0.41
2022-12-12T13:39:09.313Z,0.32
2022-12-12T13:40:27.208Z,0.41
2022-12-12T13:42:14.761Z,0.44
2022-12-12T13:43:55.283Z,0.43
2022-12-12T13:45:45.211Z,0.46
2022-12-12T13:46:51.682Z,0.47
2022-12-12T13:48:03.977Z,0.48
2022-12-12T13:49:07.760Z,0.48
2022-12-12T13:50:11.479Z,0.44
2022-12-12T13:51:31.589Z,0.48
2022-12-12T13:52:44.786Z,0.50
2022-12-12T13:53:48.798Z,0.44
2022-12-12T13:55:12.970Z,0.51
2022-12-12T13:56:43.518Z,0.45
2022-12-12T13:58:01.734Z,0.50
2022-12-12T13:59:25.663Z,0.50
2022-12-12T14:00:33.130Z,0.51
2022-12-12T14:01:41.002Z,0.50
2022-12-12T14:03:14.997Z,0.47
2022-12-12T14:04:37.317Z,0.43
2022-12-12T14:05:45.770Z,0.43
2022-12-12T14:07:17.156Z,0.48
2022-12-12T14:08:28.831Z,0.50
2022-12-12T14:09:48.345Z,0.47
2022-12-12T14:11:01.778Z,0.41
2022-12-12T14:12:34.335Z,0.50
2022-12-12T14:13:46.020Z,0.51
2022-12-12T14:15:19.568Z,0.49
2022-12-12T14:16:27.894Z,0.39
2022-12-12T14:17:42.180Z,0.42
2022-12-12T14:18:50.189Z,0.37
2022-12-12T14:19:58.989Z,0.31
2022-12-12T14:21:10.927Z,0.34
2022-12-12T14:22:36.570Z,0.33
2022-12-12T14:23:51.891Z,0.34
2022-12-12T14:25:08.955Z,0.33
2022-12-12T14:26:28.941Z,0.35
2022-12-12T14:27:52.733Z,0.38
2022-12-12T14:29:17.997Z,0.48
2022-12-12T14:30:33.855Z,0.46
2022-12-12T14:32:07.089Z,0.40
2022-12-12T14:33:17.078Z,0.41
2022-12-12T14:35:00.761Z,0.42
2022-12-12T14:36:25.600Z,0.40
2022-12-12T14:38:03.239Z,0.32
2022-12-12T14:39:46.835Z,0.31
2022-12-12T14:41:00.165Z,0.37
2022-12-12T14:42:12.786Z,0.43
2022-12-12T14:43:30.369Z,0.36
2022-12-12T14:44:36.350Z,0.39
2022-12-12T14:45:52.267Z,0.46
2022-12-12T14:46:59.485Z,0.48
2022-12-12T14:48:30.401Z,0.48
2022-12-12T14:49:34.626Z,0.46
2022-12-12T14:50:40.724Z,0.46
2022-12-12T14:51:52.339Z,0.48
2022-12-12T14:52:56.178Z,0.52
2022-12-12T14:54:04.343Z,0.53
2022-12-12T14:55:16.141Z,0.55
2022-12-12T14:56:36.846Z,0.56
2022-12-12T14:57:42.233Z,0.50
2022-12-12T14:58:57.292Z,0.49
2022-12-12T15:00:02.524Z,0.51
2022-12-12T15:01:08.348Z,0.54
2022-12-12T15:02:34.623Z,0.53
2022-12-12T15:03:43.333Z,0.57
2022-12-12T15:04:55.182Z,0.52
2022-12-12T15:06:29.474Z,0.49
2022-12-12T15:07:39.313Z,0.51
2022-12-12T15:08:45.232Z,0.46
2022-12-12T15:09:50.442Z,0.47
2022-12-12T15:11:00.391Z,0.42
2022-12-12T15:12:24.656Z,0.41
2022-12-12T15:13:28.423Z,0.34
2022-12-12T15:14:32.299Z,0.37
2022-12-12T15:15:36.632Z,0.38
2022-12-12T15:16:56.960Z,0.46
2022-12-12T15:18:02.332Z,0.44
2022-12-12T15:19:36.662Z,0.44
2022-12-12T15:20:40.839Z,0.42
2022-12-12T15:21:52.266Z,0.46
2022-12-12T15:23:07.086Z,0.52
2022-12-12T15:24:26.886Z,0.41
2022-12-12T15:25:59.209Z,0.47
2022-12-12T15:27:14.341Z,0.44
2022-12-12T15:28:33.299Z,0.42
2022-12-12T15:29:38.608Z,0.43
2022-12-12T15:30:48.314Z,0.38
2022-12-12T15:32:07.886Z,0.33
2022-12-12T15:33:22.523Z,0.30
2022-12-12T15:34:42.825Z,0.31
2022-12-12T15:36:09.748Z,0.36
2022-12-12T15:37:26.343Z,0.32
2022-12-12T15:38:31.519Z,0.31
2022-12-12T15:39:35.238Z,0.31
2022-12-12T15:40:41.838Z,0.32
2022-12-12T15:41:50.903Z,0.36
2022-12-12T15:42:58.968Z,0.32
2022-12-12T15:44:04.627Z,0.26
2022-12-12T15:45:34.824Z,0.31
2022-12-12T15:46:38.780Z,0.28
2022-12-12T15:47:42.591Z,0.36
2022-12-12T15:48:50.590Z,0.40
2022-12-12T15:49:55.071Z,0.39
2022-12-12T15:51:06.689Z,0.42
2022-12-12T15:52:29.090Z,0.34
2022-12-12T15:53:46.447Z,0.38
2022-12-12T15:55:03.132Z,0.36
2022-12-12T15:56:15.568Z,0.33
2022-12-12T15:57:26.159Z,0.36
2022-12-12T15:58:38.579Z,0.38
2022-12-12T16:00:01.225Z,0.41
2022-12-12T16:01:21.725Z,0.32
2022-12-12T16:02:37.558Z,0.35
2022-12-12T16:04:07.018Z,0.35
2022-12-12T16:05:37.368Z,0.34
2022-12-12T16:06:50.818Z,0.41
2022-12-12T16:07:55.094Z,0.47
2022-12-12T16:09:21.714Z,0.49
2022-12-12T16:10:28.813Z,0.45
2022-12-12T16:11:49.994Z,0.43
2022-12-12T16:13:42.472Z,0.48
2022-12-12T16:14:46.447Z,0.48
2022-12-12T16:15:54.599Z,0.51
2022-12-12T16:17:15.923Z,0.49
2022-12-12T16:18:24.452Z,0.43